Time;durP1;ratioP1;P1;durP2;ratioP2;P2;SDS_P1;SDS_P2;PMS_P1;PMS_P2;Temp;Humidity;BMP_temperature;BMP_pressure;BME280_temperature;BME280_humidity;BME280_pressure;Samples;Min_cycle;Max_cycle;Signal;HPM_P1;HPM_P2
2022/04/01 04:11:36;;;;;;;88.95;50.70;;;;;;;10.09;79.70;99300.34;5105507;27;20781;-85
2022/04/01 04:14:02;;;;;;;99.88;57.80;;;;;;;10.11;79.28;99287.31;5072465;28;20046;-85
2022/04/01 04:16:29;;;;;;;74.93;45.55;;;;;;;10.25;78.84;99284.66;5056679;28;20393;-85
2022/04/01 04:19:08;;;;;;;64.72;36.90;;;;;;;10.34;78.20;99281.44;5069446;28;20031;-90
2022/04/01 04:21:56;;;;;;;60.63;35.58;;;;;;;10.53;77.64;99284.41;5069417;28;20401;-84
2022/04/01 04:24:36;;;;;;;54.63;34.65;;;;;;;10.63;77.12;99282.81;5078041;28;20103;-86
2022/04/01 04:27:12;;;;;;;59.85;35.40;;;;;;;10.73;76.66;99257.13;5065404;28;20043;-86
2022/04/01 04:30:03;;;;;;;53.53;33.63;;;;;;;10.68;76.67;99237.69;5084571;28;20125;-81
2022/04/01 04:32:48;;;;;;;54.08;33.78;;;;;;;10.73;76.73;99275.25;5086987;28;20054;-92
2022/04/01 04:35:14;;;;;;;54.15;33.63;;;;;;;10.73;76.80;99275.25;5087324;28;20035;-92
2022/04/01 04:37:47;;;;;;;53.53;32.80;;;;;;;10.83;76.79;99271.06;5074041;28;20036;-87
2022/04/01 04:40:15;;;;;;;48.53;29.50;;;;;;;10.94;76.44;99282.41;5056344;28;20037;-90
2022/04/01 04:42:51;;;;;;;56.72;31.75;;;;;;;10.86;76.34;99286.34;5054600;28;20127;-92
2022/04/01 04:45:20;;;;;;;55.00;31.42;;;;;;;10.99;76.34;99286.31;5054662;28;20055;-90
2022/04/01 04:47:47;;;;;;;63.25;36.60;;;;;;;11.02;76.47;99269.75;5068882;28;20070;-84
2022/04/01 04:50:12;;;;;;;57.67;33.20;;;;;;;11.34;75.79;99293.28;5052347;28;20504;-82
2022/04/01 04:52:39;;;;;;;53.63;30.45;;;;;;;11.35;75.65;99287.16;5063783;28;20028;-82
2022/04/01 04:55:07;;;;;;;116.07;73.90;;;;;;;11.37;75.41;99264.56;5083566;28;20024;-85
2022/04/01 04:57:33;;;;;;;46.53;28.33;;;;;;;11.47;75.19;99266.38;5074486;28;20036;-83
2022/04/01 04:59:58;;;;;;;48.13;28.67;;;;;;;11.55;74.82;99268.41;5065571;28;20023;-85
2022/04/01 05:02:40;;;;;;;48.92;27.45;;;;;;;11.77;73.77;99286.56;5080420;28;20039;-86
2022/04/01 05:05:16;;;;;;;43.60;27.13;;;;;;;11.81;73.03;99283.81;5070563;28;20103;-87
2022/04/01 05:08:30;;;;;;;51.03;26.48;;;;;;;12.05;73.10;99292.28;5066271;28;20421;-90
2022/04/01 05:11:06;;;;;;;51.28;26.35;;;;;;;12.20;72.48;99282.53;5068390;28;20048;-89
2022/04/01 05:13:34;;;;;;;45.92;26.92;;;;;;;12.11;72.40;99237.41;5087038;28;20115;-85
2022/04/01 05:16:07;;;;;;;51.67;26.92;;;;;;;12.41;71.83;99274.88;5102872;28;20059;-94
2022/04/01 05:18:40;;;;;;;42.17;23.58;;;;;;;12.14;71.66;99224.19;5055082;28;20498;-94
2022/04/01 05:21:07;;;;;;;42.88;22.08;;;;;;;12.30;71.20;99255.78;5072062;28;20114;-88
2022/04/01 05:23:55;;;;;;;36.85;19.95;;;;;;;12.52;70.37;99277.44;5063353;28;20016;-90
2022/04/01 05:26:25;;;;;;;44.72;23.33;;;;;;;12.71;70.14;99301.00;5091522;28;20031;-86
2022/04/01 05:28:55;;;;;;;46.53;23.35;;;;;;;12.58;70.07;99262.19;5056813;28;20787;-88
2022/04/01 05:31:42;;;;;;;44.47;22.15;;;;;;;12.73;69.84;99273.16;5057635;28;20026;-89
2022/04/01 05:34:17;;;;;;;38.83;20.05;;;;;;;12.97;69.69;99290.31;5058473;28;20508;-90
2022/04/01 05:36:43;;;;;;;52.75;25.63;;;;;;;13.08;69.07;99280.72;5074509;28;20424;-90
2022/04/01 05:39:09;;;;;;;39.85;19.02;;;;;;;13.15;69.22;99268.06;5057880;28;20047;-86
2022/04/01 05:41:35;;;;;;;41.92;20.85;;;;;;;13.27;69.11;99285.28;5057499;28;20107;-87
2022/04/01 05:44:00;;;;;;;37.63;20.40;;;;;;;13.31;68.63;99294.47;5050590;28;20048;-85
2022/04/01 05:46:26;;;;;;;36.65;20.27;;;;;;;13.28;68.78;99278.34;5054762;28;20424;-86
2022/04/01 05:48:55;;;;;;;34.10;19.02;;;;;;;13.48;67.47;99298.31;5053851;28;20511;-83
2022/04/01 05:51:20;;;;;;;41.00;22.02;;;;;;;13.62;67.91;99282.41;5051784;28;20398;-86
2022/04/01 05:53:47;;;;;;;40.42;21.23;;;;;;;13.66;68.03;99275.16;5053103;28;20097;-89
2022/04/01 05:56:14;;;;;;;56.03;31.20;;;;;;;13.72;67.88;99303.25;5034964;28;20020;-88
2022/04/01 05:58:40;;;;;;;38.40;21.65;;;;;;;13.80;67.01;99316.44;5052761;28;20028;-90
2022/04/01 06:01:09;;;;;;;46.08;26.83;;;;;;;13.73;66.07;99305.72;5065008;28;20414;-86
2022/04/01 06:03:59;;;;;;;54.20;33.72;;;;;;;13.73;67.21;99329.09;5054715;28;20032;-85
2022/04/01 06:06:31;;;;;;;55.17;32.60;;;;;;;13.69;67.73;99300.91;5088494;28;20035;-89
2022/04/01 06:08:57;;;;;;;46.80;31.33;;;;;;;13.64;68.27;99279.66;5056590;28;20039;-86
2022/04/01 06:11:45;;;;;;;53.40;32.70;;;;;;;13.71;69.03;99302.44;5072568;28;20429;-87
2022/04/01 06:14:16;;;;;;;47.25;30.27;;;;;;;13.76;69.01;99300.28;5056363;28;20082;-92
2022/04/01 06:16:49;;;;;;;50.15;29.50;;;;;;;13.76;69.44;99284.69;5073560;28;20032;-90
2022/04/01 06:19:24;;;;;;;;;;;;;;;13.83;69.09;99297.97;5053547;28;20071;-90
2022/04/01 06:22:14;;;;;;;54.35;31.00;;;;;;;13.70;69.70;99316.38;5053492;28;20416;-89
2022/04/01 06:25:12;;;;;;;60.08;34.25;;;;;;;13.74;69.47;99322.94;5070915;28;20421;-89
2022/04/01 06:27:48;;;;;;;62.08;34.45;;;;;;;13.56;70.05;99302.84;5064419;28;20032;-82
2022/04/01 06:30:15;;;;;;;45.83;28.15;;;;;;;13.76;69.99;99315.03;5069915;28;20072;-87
2022/04/01 06:32:46;;;;;;;52.90;28.80;;;;;;;13.63;70.23;99301.41;5054275;28;20039;-82
2022/04/01 06:35:18;;;;;;;46.28;27.75;;;;;;;13.72;70.18;99311.03;5073201;28;20124;-81
2022/04/01 06:38:05;;;;;;;41.25;25.58;;;;;;;13.84;69.96;99327.41;5057326;28;20031;-93
2022/04/01 06:40:46;;;;;;;49.22;25.88;;;;;;;13.90;69.75;99327.72;5068268;28;20044;-87
2022/04/01 06:43:11;;;;;;;48.05;24.80;;;;;;;13.82;69.41;99300.72;5064015;28;20498;-87
2022/04/01 06:45:37;;;;;;;36.22;24.85;;;;;;;13.91;69.71;99321.56;5041218;28;20031;-86
2022/04/01 06:48:02;;;;;;;46.15;29.10;;;;;;;13.80;69.82;99290.44;5052906;28;20064;-83
2022/04/01 06:50:28;;;;;;;56.45;32.38;;;;;;;14.04;70.16;99319.56;5062194;28;20059;-88
2022/04/01 06:52:54;;;;;;;44.63;24.20;;;;;;;13.93;69.91;99326.63;5044140;28;20028;-92
2022/04/01 06:55:19;;;;;;;35.97;23.15;;;;;;;14.00;69.68;99346.81;5055039;28;20069;-92
2022/04/01 06:57:45;;;;;;;46.28;23.58;;;;;;;13.96;69.51;99310.75;5078714;22;20046;-93
2022/04/01 07:00:14;;;;;;;43.35;23.25;;;;;;;14.05;69.05;99323.81;5008272;28;20092;-86
2022/04/01 07:02:42;;;;;;;40.05;25.42;;;;;;;14.24;69.32;99343.09;5022234;28;20607;-91
2022/04/01 07:05:09;;;;;;;145.30;92.55;;;;;;;14.28;69.00;99332.31;4992527;28;20553;-88
2022/04/01 07:07:35;;;;;;;41.67;24.48;;;;;;;14.28;68.56;99328.88;5009011;28;20030;-91
2022/04/01 07:10:02;;;;;;;50.70;26.50;;;;;;;14.25;68.74;99327.34;4993370;28;20030;-88
2022/04/01 07:12:28;;;;;;;45.95;27.00;;;;;;;13.99;69.50;99320.94;4989894;28;20042;-89
2022/04/01 07:14:54;;;;;;;47.17;28.13;;;;;;;14.05;70.04;99352.44;5012444;28;20156;-91
2022/04/01 07:17:19;;;;;;;51.33;26.90;;;;;;;14.01;70.40;99350.22;4992017;28;20419;-85
2022/04/01 07:19:46;;;;;;;49.50;27.70;;;;;;;14.04;69.69;99355.97;5000997;28;20035;-93
2022/04/01 07:22:12;;;;;;;47.28;26.55;;;;;;;14.10;69.52;99349.47;4995115;28;20106;-90
2022/04/01 07:24:37;;;;;;;48.00;27.52;;;;;;;13.97;69.87;99354.03;4992879;28;20499;-85
2022/04/01 07:27:03;;;;;;;51.38;25.83;;;;;;;14.03;69.67;99362.13;4990929;28;20036;-85
2022/04/01 07:29:29;;;;;;;47.58;25.17;;;;;;;14.07;69.80;99360.94;4974153;28;20101;-84
2022/04/01 07:34:40;;;;;;;47.30;23.33;;;;;;;14.16;69.34;99380.16;4991786;28;20493;-88
2022/04/01 07:37:06;;;;;;;45.83;22.98;;;;;;;14.16;69.26;99382.78;4993805;28;20053;-91
2022/04/01 07:39:32;;;;;;;40.05;22.85;;;;;;;14.15;70.72;99388.06;4978313;28;20090;-93
2022/04/01 07:41:57;;;;;;;39.25;21.75;;;;;;;14.08;71.15;99385.19;4978755;28;20049;-93
2022/04/01 07:44:23;;;;;;;40.80;20.23;;;;;;;13.95;70.81;99382.75;5012626;28;20041;-94
2022/04/01 07:46:50;;;;;;;42.88;21.83;;;;;;;13.99;71.51;99373.75;4997345;28;20103;-92
2022/04/01 07:49:17;;;;;;;42.17;21.95;;;;;;;14.04;72.13;99387.19;4999814;28;21084;-91
2022/04/01 07:51:43;;;;;;;36.90;23.40;;;;;;;13.99;71.60;99384.16;5009025;28;20037;-88
2022/04/01 07:54:10;;;;;;;43.92;24.10;;;;;;;14.03;72.29;99359.53;4988849;28;20034;-87
2022/04/01 07:56:36;;;;;;;52.58;27.02;;;;;;;14.05;73.15;99362.84;4967710;28;20053;-87
2022/04/01 07:59:04;;;;;;;47.17;25.90;;;;;;;13.95;72.64;99350.72;5023880;28;20084;-84
2022/04/01 08:01:29;;;;;;;45.70;25.38;;;;;;;14.02;73.00;99377.88;5005924;28;20068;-86
2022/04/01 08:03:55;;;;;;;50.67;25.95;;;;;;;13.89;72.66;99380.66;5008237;28;20065;-85
2022/04/01 08:06:20;;;;;;;49.15;25.65;;;;;;;13.86;73.60;99393.06;4975070;28;20069;-85
2022/04/01 08:08:46;;;;;;;36.50;22.00;;;;;;;13.91;73.51;99385.75;4994296;28;20060;-88
2022/04/01 08:11:11;;;;;;;39.78;22.58;;;;;;;13.89;73.38;99390.25;4969852;28;20089;-85
2022/04/01 08:13:37;;;;;;;40.90;22.17;;;;;;;13.79;72.67;99361.59;4954955;28;20054;-91
2022/04/01 08:16:04;;;;;;;39.42;23.90;;;;;;;14.03;73.52;99388.13;4972959;28;20031;-85
2022/04/01 08:18:29;;;;;;;44.72;25.00;;;;;;;13.98;73.27;99369.50;4958356;28;20030;-84
2022/04/01 08:20:55;;;;;;;43.05;24.23;;;;;;;14.01;72.92;99377.06;4988290;28;20030;-83
2022/04/01 08:23:21;;;;;;;54.08;25.40;;;;;;;14.05;72.82;99396.63;4990731;28;20038;-87
2022/04/01 08:25:47;;;;;;;45.38;24.73;;;;;;;13.93;72.93;99392.44;4972334;28;20468;-86
2022/04/01 08:28:12;;;;;;;51.47;22.60;;;;;;;14.03;72.64;99392.53;5004807;28;20101;-86
2022/04/01 08:30:40;;;;;;;64.28;37.08;;;;;;;14.06;72.80;99398.31;4954772;28;20075;-84
2022/04/01 08:33:05;;;;;;;37.65;22.70;;;;;;;14.01;73.07;99391.84;4964804;28;20034;-87
2022/04/01 08:35:31;;;;;;;37.90;20.83;;;;;;;13.99;72.69;99404.97;4967518;28;20152;-89
2022/04/01 08:37:58;;;;;;;45.40;22.88;;;;;;;13.95;73.93;99402.72;4975161;28;20503;-88
2022/04/01 08:40:24;;;;;;;42.53;22.95;;;;;;;13.93;73.79;99405.44;4986054;28;20038;-90
2022/04/01 08:42:50;;;;;;;47.75;25.30;;;;;;;13.96;74.01;99420.81;4966956;28;20030;-88
2022/04/01 08:45:20;;;;;;;40.20;22.25;;;;;;;13.93;73.96;99400.25;4980302;28;20106;-94
2022/04/01 08:47:46;;;;;;;45.38;23.40;;;;;;;13.74;73.75;99364.53;4997061;28;20022;-88
2022/04/01 08:50:12;;;;;;;42.03;22.85;;;;;;;13.69;73.43;99361.50;4994434;28;20057;-87
2022/04/01 08:52:38;;;;;;;72.25;43.80;;;;;;;13.99;74.22;99389.34;4973883;28;20062;-91
2022/04/01 08:55:05;;;;;;;45.40;25.00;;;;;;;14.15;74.22;99414.09;4958641;28;20042;-89
2022/04/01 08:57:35;;;;;;;47.38;24.35;;;;;;;14.11;74.65;99400.53;4993394;28;20040;-87
2022/04/01 09:00:00;;;;;;;43.78;24.27;;;;;;;14.12;74.25;99415.16;4992503;28;20042;-88
2022/04/01 09:02:26;;;;;;;50.30;27.05;;;;;;;14.25;74.26;99414.97;4982411;28;20030;-85
2022/04/01 09:05:03;;;;;;;45.95;26.33;;;;;;;14.11;74.87;99415.28;4979560;28;20022;-86
2022/04/01 09:07:29;;;;;;;46.13;25.27;;;;;;;14.17;74.13;99417.41;4969876;28;20030;-91
2022/04/01 09:10:00;;;;;;;48.20;24.48;;;;;;;14.24;75.39;99418.53;4979422;28;20041;-84
2022/04/01 09:12:26;;;;;;;36.65;21.50;;;;;;;14.24;74.07;99415.91;4978301;28;20049;-90
2022/04/01 09:14:53;;;;;;;35.63;22.58;;;;;;;14.41;73.40;99415.34;4982952;28;20626;-83
2022/04/01 09:17:18;;;;;;;42.85;24.63;;;;;;;14.38;75.23;99415.63;4993606;28;20033;-86
2022/04/01 09:19:44;;;;;;;44.92;22.85;;;;;;;14.41;74.58;99414.53;5010335;28;20046;-83
2022/04/01 09:22:23;;;;;;;47.55;26.70;;;;;;;14.46;74.50;99392.41;4995437;28;20032;-88
2022/04/01 09:24:59;;;;;;;47.97;22.95;;;;;;;14.51;74.34;99394.59;4998082;28;20034;-88
2022/04/01 09:28:01;;;;;;;39.25;20.83;;;;;;;14.68;74.38;99421.81;5027175;28;20037;-88
2022/04/01 09:30:31;;;;;;;44.72;27.48;;;;;;;14.71;74.95;99418.94;4995831;28;20033;-86
2022/04/01 09:32:58;;;;;;;43.45;21.10;;;;;;;14.73;74.51;99419.63;4994688;28;20430;-87
2022/04/01 09:35:25;;;;;;;37.58;22.00;;;;;;;14.68;74.32;99407.03;5012228;28;20141;-90
2022/04/01 09:37:55;;;;;;;40.13;22.75;;;;;;;14.84;74.56;99419.53;5010547;28;20085;-93
2022/04/01 09:40:22;;;;;;;42.17;23.05;;;;;;;14.87;74.53;99424.50;5010586;28;20025;-95
2022/04/01 09:42:51;;;;;;;43.10;22.35;;;;;;;14.81;74.28;99427.63;5005502;28;20058;-90
2022/04/01 09:45:21;;;;;;;38.17;22.75;;;;;;;14.90;74.67;99416.41;5030492;28;20040;-89
2022/04/01 09:48:09;;;;;;;43.05;23.17;;;;;;;14.96;74.31;99426.31;5001565;28;20026;-86
2022/04/01 09:50:39;;;;;;;66.07;42.38;;;;;;;14.89;74.31;99414.78;5025891;28;20041;-84
2022/04/01 09:53:16;;;;;;;47.75;24.40;;;;;;;14.96;74.16;99421.13;5009612;28;20045;-84
2022/04/01 09:55:43;;;;;;;42.58;22.95;;;;;;;14.92;74.95;99404.09;4976283;28;20026;-84
2022/04/01 09:58:08;;;;;;;48.83;27.25;;;;;;;14.94;74.43;99402.16;4990984;28;20050;-87
2022/04/01 10:00:34;;;;;;;46.40;22.80;;;;;;;14.62;75.05;99345.06;4990334;28;20052;-90
2022/04/01 10:03:00;;;;;;;45.45;25.50;;;;;;;15.02;74.58;99383.28;5006525;28;20143;-86
2022/04/01 10:05:26;;;;;;;68.50;41.88;;;;;;;14.96;75.25;99369.03;5019196;28;20068;-87
2022/04/01 10:07:56;;;;;;;48.53;27.38;;;;;;;15.01;74.28;99350.38;5017192;28;20406;-83
2022/04/01 10:10:22;;;;;;;37.47;20.52;;;;;;;15.16;74.58;99351.66;5023956;28;20091;-81
2022/04/01 10:12:47;;;;;;;33.47;17.92;;;;;;;15.33;73.46;99378.81;5015850;28;20029;-84
2022/04/01 10:15:13;;;;;;;44.40;17.23;;;;;;;15.41;72.51;99374.56;4987947;28;20084;-87
2022/04/01 10:17:41;;;;;;;35.80;16.98;;;;;;;15.58;72.38;99377.47;4977841;28;20018;-92
2022/04/01 10:20:12;;;;;;;37.53;15.68;;;;;;;15.38;71.89;99327.13;4973930;28;20034;-89
2022/04/01 10:22:38;;;;;;;41.80;16.65;;;;;;;15.76;72.13;99361.03;5000702;28;20396;-86
2022/04/01 10:25:26;;;;;;;42.53;16.88;;;;;;;15.82;72.14;99364.03;4994020;28;20034;-93
2022/04/01 10:27:52;;;;;;;37.88;17.10;;;;;;;15.88;72.66;99355.66;4997883;28;20087;-93
2022/04/01 10:30:20;;;;;;;35.58;17.88;;;;;;;15.82;73.18;99340.56;4977118;28;20085;-86
2022/04/01 10:32:47;;;;;;;36.97;19.20;;;;;;;16.02;73.84;99368.25;5007562;28;20061;-84
2022/04/01 10:35:29;;;;;;;43.28;19.27;;;;;;;16.08;73.86;99367.69;4995288;28;20499;-95
2022/04/01 10:38:13;;;;;;;39.25;17.25;;;;;;;16.04;72.30;99342.88;5014099;28;20516;-89
2022/04/01 10:40:40;;;;;;;38.33;17.20;;;;;;;16.15;72.27;99354.94;4992930;28;20033;-87
2022/04/01 10:43:10;;;;;;;36.85;17.15;;;;;;;16.22;70.27;99348.16;4992335;28;20720;-91
2022/04/01 10:45:37;;;;;;;38.78;16.95;;;;;;;15.96;70.62;99307.06;4992581;28;20037;-84
2022/04/01 10:51:37;;;;;;;41.55;19.58;;;;;;;16.34;71.19;99332.19;4997854;28;20121;-81
2022/04/01 10:54:06;;;;;;;38.55;18.27;;;;;;;16.43;71.21;99319.25;4995988;28;20389;-85
2022/04/01 10:56:33;;;;;;;35.00;16.90;;;;;;;16.45;70.90;99338.22;4993457;28;20037;-86
2022/04/01 10:59:04;;;;;;;35.50;17.75;;;;;;;16.57;69.83;99319.59;5010200;28;20050;-85
2022/04/01 11:01:30;;;;;;;40.17;18.85;;;;;;;16.70;68.76;99319.28;4993991;28;20109;-90
2022/04/01 11:04:07;;;;;;;41.63;19.17;;;;;;;16.79;69.54;99307.97;4992844;28;20051;-84
2022/04/01 11:06:34;;;;;;;43.35;19.35;;;;;;;16.92;70.71;99308.44;5006857;28;21500;-82
2022/04/01 11:09:02;;;;;;;34.72;17.38;;;;;;;16.95;69.32;99294.25;4972409;28;20042;-83
2022/04/01 11:11:28;;;;;;;33.40;16.15;;;;;;;17.19;67.32;99310.16;4973607;28;20034;-83
2022/04/01 11:14:16;;;;;;;39.78;17.20;;;;;;;17.43;67.92;99301.72;4988981;28;20088;-84
2022/04/01 11:16:49;;;;;;;38.45;17.35;;;;;;;17.58;66.88;99293.34;4988065;28;20128;-86
2022/04/01 11:19:33;;;;;;;43.58;23.98;;;;;;;17.62;67.40;99282.44;4982477;28;20030;-83
2022/04/01 11:21:59;;;;;;;34.97;15.82;;;;;;;17.88;65.59;99307.78;4991686;28;20054;-87
2022/04/01 11:24:33;;;;;;;29.40;15.18;;;;;;;17.97;64.50;99292.00;4990120;28;20116;-87
2022/04/01 11:27:22;;;;;;;33.22;15.57;;;;;;;17.90;63.83;99249.13;4974618;28;20768;-85
2022/04/01 11:30:08;;;;;;;37.78;14.20;;;;;;;18.25;63.34;99294.44;4989046;28;20625;-84
2022/04/01 11:32:35;;;;;;;28.20;13.50;;;;;;;18.30;61.31;99276.47;4986490;28;20034;-87
2022/04/01 11:35:01;;;;;;;29.33;14.50;;;;;;;18.56;61.70;99285.06;4975079;28;20091;-87
2022/04/01 11:37:26;;;;;;;29.08;11.70;;;;;;;18.67;59.12;99273.50;4991171;28;20030;-86
2022/04/01 11:39:52;;;;;;;30.75;10.93;;;;;;;18.86;58.78;99268.00;4991140;28;20257;-85
2022/04/01 11:42:17;;;;;;;28.30;10.82;;;;;;;18.75;57.26;99239.47;4991149;28;20030;-87
2022/04/01 11:44:54;;;;;;;27.05;11.52;;;;;;;18.85;57.89;99261.13;4988380;28;20031;-83
2022/04/01 11:47:34;;;;;;;25.15;10.55;;;;;;;18.82;57.51;99242.28;4973188;28;20026;-86
2022/04/01 11:50:08;;;;;;;27.70;10.18;;;;;;;18.97;55.32;99248.53;4988718;28;20030;-87
2022/04/01 11:52:44;;;;;;;29.15;10.60;;;;;;;19.03;55.22;99247.88;4988617;28;20033;-90
2022/04/01 11:55:17;;;;;;;33.38;11.18;;;;;;;19.20;54.22;99253.97;4972042;28;20084;-83
2022/04/01 11:57:42;;;;;;;31.42;11.68;;;;;;;19.29;55.54;99258.22;4972173;28;20026;-83
2022/04/01 12:00:22;;;;;;;30.17;12.68;;;;;;;19.32;56.39;99252.66;4956675;28;20057;-83
2022/04/01 12:02:49;;;;;;;28.42;13.20;;;;;;;19.66;57.61;99249.84;4972936;28;20038;-87
2022/04/01 12:05:14;;;;;;;24.92;12.52;;;;;;;19.79;57.52;99238.03;4988758;28;20022;-86
2022/04/01 12:10:28;;;;;;;30.42;12.63;;;;;;;20.50;55.09;99226.63;4995598;28;20088;-89
2022/04/01 12:13:02;;;;;;;30.58;13.38;;;;;;;20.36;54.00;99232.59;4993058;28;20025;-92
2022/04/01 12:15:35;;;;;;;34.70;14.20;;;;;;;20.30;54.93;99220.97;5013458;28;20116;-83
2022/04/01 12:18:02;;;;;;;28.65;11.07;;;;;;;20.42;54.56;99210.88;4976958;28;20412;-84
2022/04/01 12:20:28;;;;;;;25.63;10.43;;;;;;;20.44;52.45;99190.53;5008524;28;20036;-86
2022/04/01 12:23:00;;;;;;;19.05;9.18;;;;;;;20.67;51.38;99201.91;4993049;28;20133;-85
2022/04/01 12:25:27;;;;;;;21.73;7.35;;;;;;;20.53;50.53;99179.00;4992929;28;20029;-89
2022/04/01 12:27:57;;;;;;;21.65;6.80;;;;;;;20.64;50.83;99196.97;4993064;28;20038;-87
2022/04/01 12:30:47;;;;;;;15.77;5.97;;;;;;;20.62;49.29;99206.84;5009250;28;20829;-83
2022/04/01 12:33:28;;;;;;;26.55;5.72;;;;;;;20.67;47.43;99201.91;4981794;28;20046;-83
2022/04/01 12:36:08;;;;;;;24.80;4.85;;;;;;;20.72;44.40;99201.38;4977411;28;20030;-83
2022/04/01 12:38:36;;;;;;;20.70;4.57;;;;;;;20.70;45.56;99175.28;4977522;28;20100;-89
2022/04/01 12:41:03;;;;;;;19.52;4.80;;;;;;;20.88;43.91;99196.00;4977184;28;20034;-86
2022/04/01 12:43:46;;;;;;;17.98;5.30;;;;;;;20.76;43.84;99174.59;4994054;28;20067;-83
2022/04/01 12:46:29;;;;;;;23.88;6.72;;;;;;;20.94;41.84;99194.47;4977717;28;20100;-86
2022/04/01 12:48:56;;;;;;;16.73;4.63;;;;;;;20.90;41.83;99186.13;4993459;28;21124;-86
2022/04/01 12:51:24;;;;;;;23.58;5.25;;;;;;;20.83;42.02;99180.75;4977378;28;20523;-85
2022/04/01 12:54:00;;;;;;;20.95;4.90;;;;;;;20.77;42.52;99173.59;4977224;28;20030;-88
2022/04/01 12:56:36;;;;;;;24.75;5.43;;;;;;;20.89;42.46;99201.09;4993077;28;20030;-93
2022/04/01 12:59:06;;;;;;;23.52;5.93;;;;;;;20.75;42.47;99180.03;4978900;28;20097;-91
2022/04/01 13:01:32;;;;;;;25.95;6.22;;;;;;;20.85;42.63;99199.81;4994954;28;20018;-92
2022/04/01 13:03:58;;;;;;;23.75;6.30;;;;;;;20.79;42.36;99197.88;4993323;28;20407;-90
2022/04/01 13:06:25;;;;;;;23.08;5.15;;;;;;;20.73;43.47;99200.38;4977030;28;20385;-86
2022/04/01 13:09:03;;;;;;;21.88;5.75;;;;;;;20.43;43.12;99171.34;4976535;28;20180;-90
2022/04/01 13:11:45;;;;;;;25.05;6.88;;;;;;;20.48;44.38;99176.91;4994533;28;20129;-92
2022/04/01 13:14:24;;;;;;;27.13;9.27;;;;;;;20.40;43.23;99163.78;4988290;28;20491;-86
2022/04/01 13:16:51;;;;;;;23.05;6.78;;;;;;;20.33;45.02;99168.91;5011606;28;20272;-90
2022/04/01 13:19:18;;;;;;;24.60;5.90;;;;;;;20.14;44.88;99156.19;5012669;28;20080;-88
2022/04/01 13:21:43;;;;;;;27.38;6.30;;;;;;;20.07;48.54;99178.06;4995536;28;20034;-91
2022/04/01 13:24:10;;;;;;;28.58;6.40;;;;;;;19.76;48.98;99142.09;5012725;28;20112;-90
2022/04/01 13:26:35;;;;;;;33.50;7.03;;;;;;;19.89;47.06;99159.94;5012523;28;20498;-89
2022/04/01 13:29:01;;;;;;;25.20;7.47;;;;;;;19.79;48.84;99161.94;5010157;28;20061;-88
2022/04/01 13:31:26;;;;;;;24.00;6.55;;;;;;;19.67;49.79;99157.06;5011949;28;20484;-85
2022/04/01 13:33:52;;;;;;;22.48;6.78;;;;;;;19.49;48.75;99143.31;4992614;28;20487;-88
2022/04/01 13:36:17;;;;;;;31.85;6.95;;;;;;;19.51;48.97;99130.84;5013170;28;20057;-84
2022/04/01 13:38:43;;;;;;;25.70;6.75;;;;;;;19.54;48.97;99148.03;5027898;28;20041;-87
2022/04/01 13:41:09;;;;;;;26.15;7.93;;;;;;;19.40;50.77;99149.56;5013411;28;20113;-86
2022/04/01 13:43:34;;;;;;;31.25;8.40;;;;;;;19.36;49.26;99161.34;4978657;28;20038;-86
2022/04/01 13:46:00;;;;;;;37.08;10.38;;;;;;;19.30;49.39;99162.03;5011397;28;20502;-84
2022/04/01 13:48:26;;;;;;;25.98;7.35;;;;;;;19.26;48.12;99139.72;4995631;28;20037;-85
2022/04/01 13:50:53;;;;;;;31.23;7.53;;;;;;;19.25;48.99;99153.84;5013271;28;20038;-91
2022/04/01 13:53:19;;;;;;;26.98;7.45;;;;;;;19.21;50.34;99137.63;5002574;28;20079;-82
2022/04/01 13:55:45;;;;;;;29.70;7.30;;;;;;;19.23;48.30;99133.03;5031287;28;20091;-85
2022/04/01 13:58:11;;;;;;;29.77;6.40;;;;;;;19.16;48.83;99151.22;5013816;28;20041;-86
2022/04/01 14:00:39;;;;;;;25.13;5.80;;;;;;;18.96;47.74;99100.13;5015059;28;20423;-84
2022/04/01 14:03:05;;;;;;;27.70;6.28;;;;;;;19.18;48.40;99125.69;5032621;28;20479;-81
2022/04/01 14:05:31;;;;;;;22.27;6.95;;;;;;;19.04;47.43;99122.91;5032292;28;20030;-82
2022/04/01 14:07:57;;;;;;;22.48;7.00;;;;;;;19.04;47.43;99122.91;5014912;28;20108;-79
2022/04/01 14:10:23;;;;;;;30.20;6.90;;;;;;;18.95;47.91;99129.13;5031024;28;20479;-88
2022/04/01 14:12:49;;;;;;;20.48;6.03;;;;;;;18.80;47.81;99121.13;5013506;28;20075;-87
2022/04/01 14:15:14;;;;;;;24.92;6.07;;;;;;;18.79;48.19;99127.34;5031817;28;20026;-88
2022/04/01 14:17:40;;;;;;;27.15;6.82;;;;;;;18.66;48.81;99124.38;5029715;28;20078;-87
2022/04/01 14:20:06;;;;;;;22.30;6.10;;;;;;;18.63;48.75;99134.16;4996319;28;20084;-86
2022/04/01 14:22:31;;;;;;;26.67;5.97;;;;;;;18.55;47.73;99122.88;5012935;28;20029;-87
2022/04/01 14:24:57;;;;;;;17.30;4.45;;;;;;;18.52;46.17;99134.50;5029359;28;20501;-88
2022/04/01 14:27:22;;;;;;;15.25;4.13;;;;;;;18.54;46.72;99126.47;5012351;28;20029;-88
2022/04/01 14:32:32;;;;;;;18.33;3.95;;;;;;;18.40;46.09;99120.09;5015843;28;20079;-86
2022/04/01 14:34:59;;;;;;;19.20;4.13;;;;;;;18.39;46.38;99128.91;5014572;28;20037;-87
2022/04/01 14:37:25;;;;;;;13.75;3.80;;;;;;;18.32;46.71;99148.84;5031264;28;20487;-87
2022/04/01 14:39:52;;;;;;;12.30;3.38;;;;;;;18.09;47.23;99147.78;5015067;28;20499;-87
2022/04/01 14:42:17;;;;;;;12.43;3.20;;;;;;;17.82;47.25;99136.59;5014469;28;20025;-87
2022/04/01 14:44:43;;;;;;;7.65;2.50;;;;;;;17.83;46.06;99155.72;5014567;28;20494;-88
2022/04/01 14:47:09;;;;;;;10.85;2.65;;;;;;;17.80;46.97;99154.25;5014664;28;20358;-89
2022/04/01 14:49:36;;;;;;;12.88;3.17;;;;;;;17.73;47.18;99153.22;5014932;28;20533;-87
2022/04/01 14:52:02;;;;;;;10.05;2.97;;;;;;;17.71;47.44;99158.63;5030930;28;20064;-87
2022/04/01 14:54:27;;;;;;;11.70;3.13;;;;;;;17.60;47.34;99160.63;4997424;28;20478;-88
2022/04/01 14:56:53;;;;;;;11.00;3.10;;;;;;;17.61;47.70;99147.44;5030496;28;20053;-90
2022/04/01 14:59:20;;;;;;;8.30;2.85;;;;;;;17.57;48.14;99137.41;5014048;28;20550;-89
2022/04/01 15:01:45;;;;;;;8.02;2.92;;;;;;;17.55;48.64;99139.38;5015188;28;20029;-91
2022/04/01 15:04:11;;;;;;;9.80;3.30;;;;;;;17.40;48.18;99137.34;5014231;28;20044;-90
2022/04/01 15:06:38;;;;;;;13.88;3.28;;;;;;;17.51;48.38;99149.34;5031674;28;20384;-89
2022/04/01 15:09:04;;;;;;;8.25;2.50;;;;;;;17.42;49.00;99151.06;5014420;28;20104;-89
2022/04/01 15:11:29;;;;;;;12.32;2.70;;;;;;;17.43;49.42;99141.44;5030462;28;20129;-90
2022/04/01 15:13:55;;;;;;;8.57;3.00;;;;;;;17.35;49.36;99136.16;5014034;28;20120;-90
2022/04/01 15:16:20;;;;;;;8.95;2.60;;;;;;;17.02;49.32;99099.38;5014143;28;20533;-89
2022/04/01 15:18:46;;;;;;;9.65;2.70;;;;;;;17.26;49.54;99127.44;5031292;28;20026;-88
2022/04/01 15:21:11;;;;;;;11.00;2.80;;;;;;;17.02;49.57;99090.72;5013885;28;20040;-89
2022/04/01 15:23:37;;;;;;;9.13;2.53;;;;;;;16.82;49.94;99085.69;5013625;28;20029;-89
2022/04/01 15:26:02;;;;;;;8.77;3.00;;;;;;;16.99;50.33;99091.00;5030186;28;20037;-89
2022/04/01 15:28:28;;;;;;;10.63;3.25;;;;;;;16.84;49.82;99088.97;5013779;28;20029;-90
2022/04/01 15:30:53;;;;;;;12.07;3.60;;;;;;;16.75;50.50;99073.38;5029998;28;20033;-90
2022/04/01 15:33:19;;;;;;;9.80;3.72;;;;;;;16.67;50.65;99081.94;5013792;28;20029;-90
2022/04/01 15:35:46;;;;;;;8.18;3.50;;;;;;;16.73;50.90;99089.19;5030292;28;20095;-89
2022/04/01 15:38:12;;;;;;;7.25;2.75;;;;;;;16.63;50.78;99089.25;5014380;28;20041;-90
2022/04/01 15:40:38;;;;;;;12.02;3.28;;;;;;;16.55;51.18;99101.41;5013468;28;20117;-90
2022/04/01 15:43:04;;;;;;;8.13;1.95;;;;;;;16.40;51.23;99095.88;5029729;28;20116;-89
2022/04/01 15:45:34;;;;;;;6.03;2.10;;;;;;;16.37;51.44;99098.81;5013582;28;20028;-89
2022/04/01 15:48:00;;;;;;;8.50;2.70;;;;;;;16.25;51.79;99103.44;5013982;28;20482;-90
2022/04/01 15:50:29;;;;;;;4.80;1.70;;;;;;;16.01;52.06;99077.91;5013450;28;20029;-90
2022/04/01 15:52:55;;;;;;;4.95;1.90;;;;;;;16.06;52.08;99098.34;5013403;28;20025;-89